Chie Maru No.10 — JD2376 — position and weather

sailwx.info

Track history (hours):
 
Tides and Currents Weather Stations Pressure Air Temp Water Temp Dewpoint Dewpoint Depression Visibility Wind Speed Wind Dir Waves Ship Positions

Chie Maru No.10

Last reported at 2017-Dec-11 15:32 UTC. Time now 2017-Dec-12 03:00 UTC.
Position N 41°51' E 141°13'.

Length 72 m; draft 3.8 m.

Type: Ship. MMSI: 431000147.

Date/timePositionNaut miles runAvg speedWind from/ knotsBaromVisibWave heightAir tempDewpointWater temp
2017-Dec-11 15:32N 41°51' E 141°13'111.4
2017-Dec-11 15:28N 41°50' E 141°13'510.0
2017-Dec-11 15:00N 41°46' E 141°13'712.9
2017-Dec-11 14:28N 41°41' E 141°06'714.9
2017-Dec-11 14:00N 41°39' E 140°57'714.9
2017-Dec-11 13:31N 41°34' E 140°49'714.9
2017-Dec-11 13:01N 41°30' E 140°41'714.4
2017-Dec-11 12:31N 41°25' E 140°34'5 8.8
2017-Dec-11 11:59N 41°21' E 140°33'510.3
2017-Dec-11 11:31N 41°17' E 140°37'5 9.7
2017-Dec-11 11:00N 41°13' E 140°41'611.2
2017-Dec-11 10:27N 41°07' E 140°44'511.8
2017-Dec-11 10:00N 41°05' E 140°51'712.0
2017-Dec-11 09:26N 41°05' E 140°60'611.9
2017-Dec-11 08:55N 41°08' E 141°07'8 0.7
2017-Dec-10 21:32N 41°15' E 141°11'0 3.1
2017-Dec-10 21:29N 41°15' E 141°11'0 0.1
2017-Dec-10 20:49N 41°15' E 141°11'0 0.0
2017-Dec-10 20:17N 41°15' E 141°11'0 0.0
2017-Dec-10 19:59N 41°15' E 141°11'0 0.0
2017-Dec-10 19:30N 41°15' E 141°11'0 0.0
2017-Dec-10 16:40N 41°15' E 141°11'0 0.4
2017-Dec-10 16:29N 41°15' E 141°11'5 9.3
2017-Dec-10 15:57N 41°10' E 141°11'612.5
2017-Dec-10 15:31N 41°07' E 141°05'611.8
2017-Dec-10 15:00N 41°05' E 140°58'612.3
2017-Dec-10 14:30N 41°05' E 140°49'710.2
2017-Dec-10 13:50N 41°10' E 140°43'412.0
2017-Dec-10 13:30N 41°14' E 140°43'712.8
2017-Dec-10 13:00N 41°20' E 140°45'613.0
2017-Dec-10 12:31N 41°26' E 140°47'612.1
2017-Dec-10 12:00N 41°32' E 140°50'611.3
2017-Dec-10 11:30N 41°36' E 140°55'612.2
2017-Dec-10 11:00N 41°34' E 141°02'612.1
2017-Dec-10 10:31N 41°31' E 141°10'612.0
2017-Dec-10 10:01N 41°29' E 141°17'713.0
2017-Dec-10 09:30N 41°28' E 141°26'39511.6
2017-Dec-08 23:37N 34°58' E 140°07'410.8
2017-Dec-08 23:17N 34°56' E 140°03'1211.2
2017-Dec-08 22:12N 34°52' E 139°49'314.1
2017-Dec-08 22:00N 34°54' E 139°46'611.6
2017-Dec-08 21:30N 34°59' E 139°44'510.4
2017-Dec-08 21:00N 35°01' E 139°50'0 0.3
2017-Dec-08 20:30N 35°01' E 139°50'0 0.0
2017-Dec-08 19:54N 35°01' E 139°50'0 0.0
2017-Dec-08 19:30N 35°01' E 139°50'0 0.0
2017-Dec-08 19:00N 35°01' E 139°50'0 0.0
2017-Dec-08 18:29N 35°01' E 139°50'0 0.1
2017-Dec-08 18:00N 35°01' E 139°50'0 0.1
2017-Dec-08 17:29N 35°01' E 139°50'0 0.0
2017-Dec-08 16:58N 35°01' E 139°50'0 0.1
2017-Dec-08 16:30N 35°01' E 139°50'0 0.0
2017-Dec-08 16:01N 35°01' E 139°50'0 0.1
2017-Dec-08 15:29N 35°01' E 139°50'0 0.1
2017-Dec-08 14:59N 35°01' E 139°50'0 0.1
2017-Dec-08 14:30N 35°01' E 139°50'0 0.0
2017-Dec-08 14:00N 35°01' E 139°50'0 0.0
2017-Dec-08 13:30N 35°01' E 139°50'0 0.0
2017-Dec-08 12:58N 35°01' E 139°50'0 0.0
2017-Dec-08 12:22N 35°01' E 139°50'0 0.0
2017-Dec-08 11:58N 35°01' E 139°50'0 0.1
2017-Dec-08 11:22N 35°01' E 139°50'0 0.2
2017-Dec-08 10:58N 35°01' E 139°50'0 0.0
2017-Dec-08 10:16N 35°01' E 139°50'0 0.0
2017-Dec-08 09:58N 35°01' E 139°50'0 0.0
2017-Dec-08 09:17N 35°01' E 139°50'0 0.5
2017-Dec-08 09:00N 35°01' E 139°50'510.3
2017-Dec-08 08:30N 35°05' E 139°47'713.1
2017-Dec-08 08:00N 35°12' E 139°46'612.3
2017-Dec-08 07:30N 35°18' E 139°45'5 9.3
2017-Dec-08 07:00N 35°22' E 139°44'0 0.1
2017-Dec-08 06:28N 35°22' E 139°43'0 0.1
2017-Dec-08 05:58N 35°22' E 139°43'0 0.1
2017-Dec-08 05:25N 35°22' E 139°43'0 0.0
2017-Dec-08 04:58N 35°22' E 139°43'3 6.4
2017-Dec-08 04:31N 35°23' E 139°40'2 4.2
2017-Dec-08 04:00N 35°24' E 139°38'0 0.0
2017-Dec-08 03:30N 35°24' E 139°38'0 0.0
2017-Dec-08 03:00N 35°24' E 139°38'0 0.0
2017-Dec-08 02:31N 35°24' E 139°38'0 0.0
2017-Dec-08 02:01N 35°24' E 139°38'0 0.0
2017-Dec-08 01:30N 35°24' E 139°38'0 0.0
2017-Dec-08 01:00N 35°24' E 139°38'0 0.0
2017-Dec-08 00:30N 35°24' E 139°38'0 0.0
2017-Dec-08 00:00N 35°24' E 139°38'0 0.3
2017-Dec-07 23:31N 35°24' E 139°38'3 4.8
2017-Dec-07 22:58N 35°23' E 139°41'0 0.1
2017-Dec-07 22:28N 35°23' E 139°41'0 0.0
2017-Dec-07 21:58N 35°23' E 139°41'0 0.0
2017-Dec-07 21:28N 35°23' E 139°41'0 0.0
2017-Dec-07 20:58N 35°23' E 139°41'0 0.0
2017-Dec-07 20:28N 35°23' E 139°41'0 0.0
2017-Dec-07 19:58N 35°23' E 139°41'0 0.0
2017-Dec-07 19:28N 35°23' E 139°41'0 0.0
2017-Dec-07 18:58N 35°23' E 139°41'0 0.0
2017-Dec-07 18:28N 35°23' E 139°41'0 0.1
2017-Dec-07 17:58N 35°23' E 139°41'0 0.1
2017-Dec-07 17:28N 35°23' E 139°41'0 0.0
2017-Dec-07 16:58N 35°23' E 139°41'0 0.0
2017-Dec-07 16:28N 35°23' E 139°41'0 0.0
2017-Dec-07 15:58N 35°23' E 139°41'0 0.0
2017-Dec-07 15:28N 35°23' E 139°41'0 0.0
2017-Dec-07 14:58N 35°23' E 139°41'0 0.0
2017-Dec-07 14:28N 35°23' E 139°41'0 0.0
2017-Dec-07 13:58N 35°23' E 139°41'0 0.1
2017-Dec-07 13:28N 35°23' E 139°41'0 0.1
2017-Dec-07 12:58N 35°23' E 139°41'0 0.0
2017-Dec-07 12:28N 35°23' E 139°41'0 0.0
2017-Dec-07 11:58N 35°23' E 139°41'0 0.0
2017-Dec-07 11:28N 35°23' E 139°41'0 0.0
2017-Dec-07 10:58N 35°23' E 139°41'0 0.0
2017-Dec-07 10:28N 35°23' E 139°41'0 0.0
2017-Dec-07 09:58N 35°23' E 139°41'0 0.0
2017-Dec-07 09:28N 35°23' E 139°41'1 2.7
2017-Dec-07 09:00N 35°24' E 139°40'1 1.4
2017-Dec-07 08:31N 35°24' E 139°40'0 0.0
2017-Dec-07 08:00N 35°24' E 139°40'0 0.0
2017-Dec-07 07:30N 35°24' E 139°40'0 0.0
2017-Dec-07 07:00N 35°24' E 139°40'0 0.0
2017-Dec-07 06:30N 35°24' E 139°40'0 0.0
2017-Dec-07 06:00N 35°24' E 139°40'0 0.0
2017-Dec-07 05:30N 35°24' E 139°40'1 1.5
2017-Dec-07 05:00N 35°24' E 139°40'510.4
2017-Dec-07 04:30N 35°27' E 139°45'4 7.7
2017-Dec-07 04:00N 35°31' E 139°46'0 0.1
2017-Dec-07 03:30N 35°31' E 139°46'0 0.0
2017-Dec-07 03:00N 35°31' E 139°46'0 0.0
2017-Dec-07 02:30N 35°31' E 139°46'0 0.0
2017-Dec-07 02:00N 35°31' E 139°46'0 0.0
2017-Dec-07 01:31N 35°31' E 139°46'0 0.0
2017-Dec-07 01:00N 35°31' E 139°46'0 0.0
2017-Dec-07 00:30N 35°31' E 139°46'0 0.0
2017-Dec-07 00:00N 35°31' E 139°46'0 0.0
2017-Dec-06 23:30N 35°31' E 139°46'0 0.0
2017-Dec-06 23:00N 35°31' E 139°46'0 0.1
2017-Dec-06 22:30N 35°31' E 139°46'2 4.9
2017-Dec-06 22:00N 35°29' E 139°48'0 0.2
2017-Dec-06 21:29N 35°29' E 139°48'0 0.0
2017-Dec-06 20:58N 35°29' E 139°48'  
2017-Dec-04 09:56N 34°52' E 139°23'614.2
2017-Dec-04 09:30N 34°48' E 139°17'1013.6
2017-Dec-04 08:44N 34°42' E 139°07'312.5
2017-Dec-04 08:30N 34°40' E 139°04'712.5
2017-Dec-04 07:58N 34°37' E 138°57'613.0
2017-Dec-04 07:30N 34°36' E 138°50'712.7
2017-Dec-04 06:56N 34°40' E 138°43'511.4
2017-Dec-04 06:30N 34°45' E 138°43'611.8
2017-Dec-04 06:00N 34°51' E 138°43'612.5
2017-Dec-04 05:30N 34°57' E 138°42'613.0
2017-Dec-04 05:00N 35°04' E 138°42'5 9.2
2017-Dec-04 04:30N 35°08' E 138°42'0 0.1
2017-Dec-04 04:00N 35°08' E 138°42'0 0.0
2017-Dec-04 03:30N 35°08' E 138°42'0 0.0
2017-Dec-04 03:00N 35°08' E 138°42'0 0.0
2017-Dec-04 02:30N 35°08' E 138°42'0 0.0
2017-Dec-04 02:00N 35°08' E 138°42'0 0.0
2017-Dec-04 01:30N 35°08' E 138°42'0 0.0
2017-Dec-04 01:00N 35°08' E 138°42'0 0.0
2017-Dec-04 00:30N 35°08' E 138°42'0 0.0
2017-Dec-04 00:00N 35°08' E 138°42'0 0.0
2017-Dec-03 23:30N 35°08' E 138°42'1 2.6
2017-Dec-03 23:00N 35°07' E 138°42'5 9.5
2017-Dec-03 22:30N 35°04' E 138°37'5 9.1
2017-Dec-03 22:00N 35°03' E 138°32'0 0.1
2017-Dec-03 21:30N 35°03' E 138°32'0 0.0
2017-Dec-03 21:00N 35°03' E 138°32'0 0.0
2017-Dec-03 20:30N 35°03' E 138°32'0 0.0
2017-Dec-03 20:00N 35°03' E 138°32'0 0.0
2017-Dec-03 19:30N 35°03' E 138°32'0 0.0
2017-Dec-03 19:00N 35°03' E 138°32'0 0.0
2017-Dec-03 18:30N 35°03' E 138°32'0 0.5
2017-Dec-03 18:00N 35°03' E 138°32'5 9.8
2017-Dec-03 17:31N 34°58' E 138°33'510.8
2017-Dec-03 17:00N 34°53' E 138°30'510.9
2017-Dec-03 16:30N 34°48' E 138°27'611.5
2017-Dec-03 16:00N 34°43' E 138°24'611.9
2017-Dec-03 15:30N 34°38' E 138°20'611.8
2017-Dec-03 14:58N 34°33' E 138°15'612.4
2017-Dec-03 14:28N 34°33' E 138°07'3612.5
2017-Dec-03 11:35N 34°32' E 137°23'212.7
2017-Dec-03 11:27N 34°32' E 137°21'613.1
2017-Dec-03 11:00N 34°32' E 137°14'1712.2
2017-Dec-03 09:36N 34°37' E 136°54'112.8
2017-Dec-03 09:30N 34°38' E 136°53'612.6
2017-Dec-03 09:00N 34°43' E 136°48'612.5
2017-Dec-03 08:30N 34°49' E 136°45'612.0
2017-Dec-03 08:00N 34°54' E 136°42'4 7.4
2017-Dec-03 07:31N 34°57' E 136°39'0 0.1
2017-Dec-03 07:00N 34°57' E 136°38'0 0.0
2017-Dec-03 06:30N 34°57' E 136°38'0 0.0
2017-Dec-03 06:00N 34°57' E 136°38'0 0.0
2017-Dec-03 05:30N 34°57' E 136°38'0 0.0
2017-Dec-03 05:00N 34°57' E 136°38'0 0.0
2017-Dec-03 04:30N 34°57' E 136°38'0 0.0
2017-Dec-03 04:00N 34°57' E 136°38'0 0.0
2017-Dec-03 03:25N 34°57' E 136°38'0 0.0
2017-Dec-03 02:54N 34°57' E 136°38'0 0.1
2017-Dec-03 02:30N 34°57' E 136°39'3 5.6
2017-Dec-03 02:01N 34°55' E 136°42'611.1
2017-Dec-03 01:30N 34°50' E 136°44'510.9
2017-Dec-03 01:00N 34°46' E 136°48'711.6
2017-Dec-03 00:25N 34°40' E 136°53'  
Track history (hours):
 
Tides and Currents Weather Stations Pressure Air Temp Water Temp Dewpoint Dewpoint Depression Visibility Wind Speed Wind Dir Waves Ship Positions

Chie Maru No.10

Last reported at 2017-Dec-11 15:32 UTC. Time now 2017-Dec-12 03:00 UTC.
Position N 41°51' E 141°13'.

Length 72 m; draft 3.8 m.

Type: Ship. MMSI: 431000147.

Date/timePositionNaut miles runAvg speedWind from/ knotsBaromVisibWave heightAir tempDewpointWater temp
2017-Dec-11 15:32N 41°51' E 141°13'111.4
2017-Dec-11 15:28N 41°50' E 141°13'510.0
2017-Dec-11 15:00N 41°46' E 141°13'712.9
2017-Dec-11 14:28N 41°41' E 141°06'714.9
2017-Dec-11 14:00N 41°39' E 140°57'714.9
2017-Dec-11 13:31N 41°34' E 140°49'714.9
2017-Dec-11 13:01N 41°30' E 140°41'714.4
2017-Dec-11 12:31N 41°25' E 140°34'5 8.8
2017-Dec-11 11:59N 41°21' E 140°33'510.3
2017-Dec-11 11:31N 41°17' E 140°37'5 9.7
2017-Dec-11 11:00N 41°13' E 140°41'611.2
2017-Dec-11 10:27N 41°07' E 140°44'511.8
2017-Dec-11 10:00N 41°05' E 140°51'712.0
2017-Dec-11 09:26N 41°05' E 140°60'611.9
2017-Dec-11 08:55N 41°08' E 141°07'8 0.7
2017-Dec-10 21:32N 41°15' E 141°11'0 3.1
2017-Dec-10 21:29N 41°15' E 141°11'0 0.1
2017-Dec-10 20:49N 41°15' E 141°11'0 0.0
2017-Dec-10 20:17N 41°15' E 141°11'0 0.0
2017-Dec-10 19:59N 41°15' E 141°11'0 0.0
2017-Dec-10 19:30N 41°15' E 141°11'0 0.0
2017-Dec-10 16:40N 41°15' E 141°11'0 0.4
2017-Dec-10 16:29N 41°15' E 141°11'5 9.3
2017-Dec-10 15:57N 41°10' E 141°11'612.5
2017-Dec-10 15:31N 41°07' E 141°05'611.8
2017-Dec-10 15:00N 41°05' E 140°58'612.3
2017-Dec-10 14:30N 41°05' E 140°49'710.2
2017-Dec-10 13:50N 41°10' E 140°43'412.0
2017-Dec-10 13:30N 41°14' E 140°43'712.8
2017-Dec-10 13:00N 41°20' E 140°45'613.0
2017-Dec-10 12:31N 41°26' E 140°47'612.1
2017-Dec-10 12:00N 41°32' E 140°50'611.3
2017-Dec-10 11:30N 41°36' E 140°55'612.2
2017-Dec-10 11:00N 41°34' E 141°02'612.1
2017-Dec-10 10:31N 41°31' E 141°10'612.0
2017-Dec-10 10:01N 41°29' E 141°17'713.0
2017-Dec-10 09:30N 41°28' E 141°26'39511.6
2017-Dec-08 23:37N 34°58' E 140°07'410.8
2017-Dec-08 23:17N 34°56' E 140°03'1211.2
2017-Dec-08 22:12N 34°52' E 139°49'314.1
2017-Dec-08 22:00N 34°54' E 139°46'611.6
2017-Dec-08 21:30N 34°59' E 139°44'510.4
2017-Dec-08 21:00N 35°01' E 139°50'0 0.3
2017-Dec-08 20:30N 35°01' E 139°50'0 0.0
2017-Dec-08 19:54N 35°01' E 139°50'0 0.0
2017-Dec-08 19:30N 35°01' E 139°50'0 0.0
2017-Dec-08 19:00N 35°01' E 139°50'0 0.0
2017-Dec-08 18:29N 35°01' E 139°50'0 0.1
2017-Dec-08 18:00N 35°01' E 139°50'0 0.1
2017-Dec-08 17:29N 35°01' E 139°50'0 0.0
2017-Dec-08 16:58N 35°01' E 139°50'0 0.1
2017-Dec-08 16:30N 35°01' E 139°50'0 0.0
2017-Dec-08 16:01N 35°01' E 139°50'0 0.1
2017-Dec-08 15:29N 35°01' E 139°50'0 0.1
2017-Dec-08 14:59N 35°01' E 139°50'0 0.1
2017-Dec-08 14:30N 35°01' E 139°50'0 0.0
2017-Dec-08 14:00N 35°01' E 139°50'0 0.0
2017-Dec-08 13:30N 35°01' E 139°50'0 0.0
2017-Dec-08 12:58N 35°01' E 139°50'0 0.0
2017-Dec-08 12:22N 35°01' E 139°50'0 0.0
2017-Dec-08 11:58N 35°01' E 139°50'0 0.1
2017-Dec-08 11:22N 35°01' E 139°50'0 0.2
2017-Dec-08 10:58N 35°01' E 139°50'0 0.0
2017-Dec-08 10:16N 35°01' E 139°50'0 0.0
2017-Dec-08 09:58N 35°01' E 139°50'0 0.0
2017-Dec-08 09:17N 35°01' E 139°50'0 0.5
2017-Dec-08 09:00N 35°01' E 139°50'510.3
2017-Dec-08 08:30N 35°05' E 139°47'713.1
2017-Dec-08 08:00N 35°12' E 139°46'612.3
2017-Dec-08 07:30N 35°18' E 139°45'5 9.3
2017-Dec-08 07:00N 35°22' E 139°44'0 0.1
2017-Dec-08 06:28N 35°22' E 139°43'0 0.1
2017-Dec-08 05:58N 35°22' E 139°43'0 0.1
2017-Dec-08 05:25N 35°22' E 139°43'0 0.0
2017-Dec-08 04:58N 35°22' E 139°43'3 6.4
2017-Dec-08 04:31N 35°23' E 139°40'2 4.2
2017-Dec-08 04:00N 35°24' E 139°38'0 0.0
2017-Dec-08 03:30N 35°24' E 139°38'0 0.0
2017-Dec-08 03:00N 35°24' E 139°38'0 0.0
2017-Dec-08 02:31N 35°24' E 139°38'0 0.0
2017-Dec-08 02:01N 35°24' E 139°38'0 0.0
2017-Dec-08 01:30N 35°24' E 139°38'0 0.0
2017-Dec-08 01:00N 35°24' E 139°38'0 0.0
2017-Dec-08 00:30N 35°24' E 139°38'0 0.0
2017-Dec-08 00:00N 35°24' E 139°38'0 0.3
2017-Dec-07 23:31N 35°24' E 139°38'3 4.8
2017-Dec-07 22:58N 35°23' E 139°41'0 0.1
2017-Dec-07 22:28N 35°23' E 139°41'0 0.0
2017-Dec-07 21:58N 35°23' E 139°41'0 0.0
2017-Dec-07 21:28N 35°23' E 139°41'0 0.0
2017-Dec-07 20:58N 35°23' E 139°41'0 0.0
2017-Dec-07 20:28N 35°23' E 139°41'0 0.0
2017-Dec-07 19:58N 35°23' E 139°41'0 0.0
2017-Dec-07 19:28N 35°23' E 139°41'0 0.0
2017-Dec-07 18:58N 35°23' E 139°41'0 0.0
2017-Dec-07 18:28N 35°23' E 139°41'0 0.1
2017-Dec-07 17:58N 35°23' E 139°41'0 0.1
2017-Dec-07 17:28N 35°23' E 139°41'0 0.0
2017-Dec-07 16:58N 35°23' E 139°41'0 0.0
2017-Dec-07 16:28N 35°23' E 139°41'0 0.0
2017-Dec-07 15:58N 35°23' E 139°41'0 0.0
2017-Dec-07 15:28N 35°23' E 139°41'0 0.0
2017-Dec-07 14:58N 35°23' E 139°41'0 0.0
2017-Dec-07 14:28N 35°23' E 139°41'0 0.0
2017-Dec-07 13:58N 35°23' E 139°41'0 0.1
2017-Dec-07 13:28N 35°23' E 139°41'0 0.1
2017-Dec-07 12:58N 35°23' E 139°41'0 0.0
2017-Dec-07 12:28N 35°23' E 139°41'0 0.0
2017-Dec-07 11:58N 35°23' E 139°41'0 0.0
2017-Dec-07 11:28N 35°23' E 139°41'0 0.0
2017-Dec-07 10:58N 35°23' E 139°41'0 0.0
2017-Dec-07 10:28N 35°23' E 139°41'0 0.0
2017-Dec-07 09:58N 35°23' E 139°41'0 0.0
2017-Dec-07 09:28N 35°23' E 139°41'1 2.7
2017-Dec-07 09:00N 35°24' E 139°40'1 1.4
2017-Dec-07 08:31N 35°24' E 139°40'0 0.0
2017-Dec-07 08:00N 35°24' E 139°40'0 0.0
2017-Dec-07 07:30N 35°24' E 139°40'0 0.0
2017-Dec-07 07:00N 35°24' E 139°40'0 0.0
2017-Dec-07 06:30N 35°24' E 139°40'0 0.0
2017-Dec-07 06:00N 35°24' E 139°40'0 0.0
2017-Dec-07 05:30N 35°24' E 139°40'1 1.5
2017-Dec-07 05:00N 35°24' E 139°40'510.4
2017-Dec-07 04:30N 35°27' E 139°45'4 7.7
2017-Dec-07 04:00N 35°31' E 139°46'0 0.1
2017-Dec-07 03:30N 35°31' E 139°46'0 0.0
2017-Dec-07 03:00N 35°31' E 139°46'0 0.0
2017-Dec-07 02:30N 35°31' E 139°46'0 0.0
2017-Dec-07 02:00N 35°31' E 139°46'0 0.0
2017-Dec-07 01:31N 35°31' E 139°46'0 0.0
2017-Dec-07 01:00N 35°31' E 139°46'0 0.0
2017-Dec-07 00:30N 35°31' E 139°46'0 0.0
2017-Dec-07 00:00N 35°31' E 139°46'0 0.0
2017-Dec-06 23:30N 35°31' E 139°46'0 0.0
2017-Dec-06 23:00N 35°31' E 139°46'0 0.1
2017-Dec-06 22:30N 35°31' E 139°46'2 4.9
2017-Dec-06 22:00N 35°29' E 139°48'0 0.2
2017-Dec-06 21:29N 35°29' E 139°48'0 0.0
2017-Dec-06 20:58N 35°29' E 139°48'  
2017-Dec-04 09:56N 34°52' E 139°23'614.2
2017-Dec-04 09:30N 34°48' E 139°17'1013.6
2017-Dec-04 08:44N 34°42' E 139°07'312.5
2017-Dec-04 08:30N 34°40' E 139°04'712.5
2017-Dec-04 07:58N 34°37' E 138°57'613.0
2017-Dec-04 07:30N 34°36' E 138°50'712.7
2017-Dec-04 06:56N 34°40' E 138°43'511.4
2017-Dec-04 06:30N 34°45' E 138°43'611.8
2017-Dec-04 06:00N 34°51' E 138°43'612.5
2017-Dec-04 05:30N 34°57' E 138°42'613.0
2017-Dec-04 05:00N 35°04' E 138°42'5 9.2
2017-Dec-04 04:30N 35°08' E 138°42'0 0.1
2017-Dec-04 04:00N 35°08' E 138°42'0 0.0
2017-Dec-04 03:30N 35°08' E 138°42'0 0.0
2017-Dec-04 03:00N 35°08' E 138°42'0 0.0
2017-Dec-04 02:30N 35°08' E 138°42'0 0.0
2017-Dec-04 02:00N 35°08' E 138°42'0 0.0
2017-Dec-04 01:30N 35°08' E 138°42'0 0.0
2017-Dec-04 01:00N 35°08' E 138°42'0 0.0
2017-Dec-04 00:30N 35°08' E 138°42'0 0.0
2017-Dec-04 00:00N 35°08' E 138°42'0 0.0
2017-Dec-03 23:30N 35°08' E 138°42'1 2.6
2017-Dec-03 23:00N 35°07' E 138°42'5 9.5
2017-Dec-03 22:30N 35°04' E 138°37'5 9.1
2017-Dec-03 22:00N 35°03' E 138°32'0 0.1
2017-Dec-03 21:30N 35°03' E 138°32'0 0.0
2017-Dec-03 21:00N 35°03' E 138°32'0 0.0
2017-Dec-03 20:30N 35°03' E 138°32'0 0.0
2017-Dec-03 20:00N 35°03' E 138°32'0 0.0
2017-Dec-03 19:30N 35°03' E 138°32'0 0.0
2017-Dec-03 19:00N 35°03' E 138°32'0 0.0
2017-Dec-03 18:30N 35°03' E 138°32'0 0.5
2017-Dec-03 18:00N 35°03' E 138°32'5 9.8
2017-Dec-03 17:31N 34°58' E 138°33'510.8
2017-Dec-03 17:00N 34°53' E 138°30'510.9
2017-Dec-03 16:30N 34°48' E 138°27'611.5
2017-Dec-03 16:00N 34°43' E 138°24'611.9
2017-Dec-03 15:30N 34°38' E 138°20'611.8
2017-Dec-03 14:58N 34°33' E 138°15'612.4
2017-Dec-03 14:28N 34°33' E 138°07'3612.5
2017-Dec-03 11:35N 34°32' E 137°23'212.7
2017-Dec-03 11:27N 34°32' E 137°21'613.1
2017-Dec-03 11:00N 34°32' E 137°14'1712.2
2017-Dec-03 09:36N 34°37' E 136°54'112.8
2017-Dec-03 09:30N 34°38' E 136°53'612.6
2017-Dec-03 09:00N 34°43' E 136°48'612.5
2017-Dec-03 08:30N 34°49' E 136°45'612.0
2017-Dec-03 08:00N 34°54' E 136°42'4 7.4
2017-Dec-03 07:31N 34°57' E 136°39'0 0.1
2017-Dec-03 07:00N 34°57' E 136°38'0 0.0
2017-Dec-03 06:30N 34°57' E 136°38'0 0.0
2017-Dec-03 06:00N 34°57' E 136°38'0 0.0
2017-Dec-03 05:30N 34°57' E 136°38'0 0.0
2017-Dec-03 05:00N 34°57' E 136°38'0 0.0
2017-Dec-03 04:30N 34°57' E 136°38'0 0.0
2017-Dec-03 04:00N 34°57' E 136°38'0 0.0
2017-Dec-03 03:25N 34°57' E 136°38'0 0.0
2017-Dec-03 02:54N 34°57' E 136°38'0 0.1
2017-Dec-03 02:30N 34°57' E 136°39'3 5.6
2017-Dec-03 02:01N 34°55' E 136°42'611.1
2017-Dec-03 01:30N 34°50' E 136°44'510.9
2017-Dec-03 01:00N 34°46' E 136°48'711.6
2017-Dec-03 00:25N 34°40' E 136°53'  

Dump ship's entire track history